Terminal Aerodrome Forecast
Issued by NWS

Home | Current Version | Previous Version | Text Only | Print | Product List | Glossary On
Versions: 1 2 3 4 5 6 7 8 9 10 11 12 13 14 15 16 17 18 19 20 21 22 23 24 25
000
FTUS43 KLSX 211726
TAFSUS
TAF
KSUS 211726Z 2118/2218 32011G20KT P6SM SCT025
      TEMPO 2118/2120 P6SM BKN025
     FM212000 32012G21KT P6SM BKN040
     FM220100 33006KT P6SM SCT250
     FM220500 32005KT P6SM SCT025
     FM221300 36007KT P6SM SCT250=

USA.gov is the U.S. government's official web portal to all federal, state and local government web resources and services.